Главная страница
METAR-TAF:

METAR-TAF

Аэропорты :

Лодзь, Польша

широта: 51-43-19N, долгота: 019-23-53E, высота над уровнем моря: 184 м

Текущие метеонаблюдения

Эта сводка был подготовлена 18 минут назад, в 00:30 UTC
Ветер 2 Узел переменных направлений
Температура 16°C
Влажность 82%
Давление 1017 hPa
Видимость 10 км и более
Нет облачности ниже 1500 м, и нет кучево-дождевой облачности

METAR: EPLL 210030Z VRB02KT CAVOK 16/13 Q1017

Время: 02:48 (00:48 UTC)

Прогноз

Эта сводка был подготовлена 1 час и 18 минут назад, в 23:30 UTC
Прогноз действительный с 21-го 00 UTC до 21-го 24 UTC
Ветер 4 Узел переменных направлений
Видимость 10 км и более
Нет облачности ниже 1500 м, и нет кучево-дождевой облачности
изменения
С 21-го 09 UTC до 21-го 12 UTC
Ветер 10 Узел от северо-западный
изменения
С 21-го 20 UTC до 21-го 22 UTC
Ветер 3 Узел переменных направлений

TAF: EPLL 202330Z 2100/2124 VRB04KT CAVOK BECMG 2109/2112 32010KT BECMG 2120/2122 VRB03KT

Метеонаблюдения и прогнозы для более 4000 аэропортов (сводки METAR и TAF).

Имеющиеся станции представлены на карте желтыми и красными точками.

Чтобы увидеть название станции, наведите на нее мышь.

Затем щелкните, чтобы увидеть метеонаблюдения и метеопрогнозы.

Управление картой: чтобы увеличить масштаб, щелкните зеленые кнопки с черным крестиком; чтобы уменьшить масштаб, щелкните зеленую кнопку с тире; для просмотра соседних карт щелкайте зеленые стрелки.


METAR-TAF: